Time;durP1;ratioP1;P1;durP2;ratioP2;P2;SDS_P1;SDS_P2;PMS_P1;PMS_P2;Temp;Humidity;BMP_temperature;BMP_pressure;BME280_temperature;BME280_humidity;BME280_pressure;Samples;Min_cycle;Max_cycle;Signal;HPM_P1;HPM_P2
2023/02/05 00:01:29;;;;;;;;;;;;;;;-0.24;65.67;103530.94;4124881;28;19925;-65
2023/02/05 00:03:35;;;;;;;;;;;;;;;-0.27;65.34;103526.56;4123729;28;19933;-65
2023/02/05 00:05:37;;;;;;;;;;;;;;;-0.31;65.26;103527.56;4122811;28;20021;-65
2023/02/05 00:07:39;;;;;;;;;;;;;;;-0.32;65.58;103531.13;4123054;28;20476;-65
2023/02/05 00:09:41;;;;;;;;;;;;;;;-0.27;65.92;103534.53;4122794;28;20033;-64
2023/02/05 00:11:44;;;;;;;;;;;;;;;-0.28;65.98;103534.56;4122914;28;19927;-62
2023/02/05 00:17:10;;;;;;;;;;;;;;;-0.44;66.40;103532.31;4123615;23;20419;-64
2023/02/05 00:19:12;;;;;;;;;;;;;;;-0.50;66.83;103524.47;4106010;28;20013;-65
2023/02/05 00:21:14;;;;;;;;;;;;;;;-0.54;67.11;103525.44;4106248;28;20030;-64
2023/02/05 00:23:17;;;;;;;;;;;;;;;-0.56;67.08;103528.16;4106274;28;20058;-64
2023/02/05 00:25:19;;;;;;;;;;;;;;;-0.56;67.29;103532.59;4107161;28;20103;-64
2023/02/05 00:27:21;;;;;;;;;;;;;;;-0.56;67.60;103530.81;4106780;28;20029;-65
2023/02/05 00:29:23;;;;;;;;;;;;;;;-0.60;67.25;103531.78;4105394;28;20012;-65
2023/02/05 00:31:25;;;;;;;;;;;;;;;-0.59;67.30;103530.88;4121349;28;20020;-64
2023/02/05 00:33:29;;;;;;;;;;;;;;;-0.59;67.13;103530.00;4105995;28;20367;-63
2023/02/05 00:35:31;;;;;;;;;;;;;;;-0.66;67.36;103528.38;4106244;28;20030;-64
2023/02/05 00:37:32;;;;;;;;;;;;;;;-0.71;67.35;103523.19;4106705;28;20503;-64
2023/02/05 00:39:34;;;;;;;;;;;;;;;-0.76;67.84;103533.91;4106448;28;20017;-64
2023/02/05 00:41:36;;;;;;;;;;;;;;;-0.77;68.30;103520.66;4105327;28;20029;-65
2023/02/05 00:43:41;;;;;;;;;;;;;;;-0.74;68.56;103521.50;4104836;28;20029;-64
2023/02/05 00:45:43;;;;;;;;;;;;;;;-0.75;68.46;103518.88;4104577;28;20016;-65
2023/02/05 00:47:45;;;;;;;;;;;;;;;-0.78;68.16;103524.25;4106154;28;20375;-65
2023/02/05 00:49:48;;;;;;;;;;;;;;;-0.82;68.46;103531.38;4105606;28;20033;-65
2023/02/05 00:51:50;;;;;;;;;;;;;;;-0.76;68.81;103528.59;4105641;28;20459;-64
2023/02/05 00:53:52;;;;;;;;;;;;;;;-0.67;68.46;103526.66;4105725;28;20029;-64
2023/02/05 00:55:54;;;;;;;;;;;;;;;-0.64;67.89;103519.50;4106480;28;20020;-65
2023/02/05 00:57:56;;;;;;;;;;;;;;;-0.67;67.94;103524.00;4120622;28;20022;-65
2023/02/05 00:59:58;;;;;;;;;;;;;;;-0.64;67.94;103519.50;4106376;28;20018;-64
2023/02/05 01:02:00;;;;;;;;;;;;;;;-0.67;67.21;103513.41;4106637;28;20049;-64
2023/02/05 01:04:02;;;;;;;;;;;;;;;-0.78;67.07;103518.94;4105165;28;20021;-65
2023/02/05 01:06:08;;;;;;;;;;;;;;;-0.84;67.21;103503.16;4105775;28;20025;-65
2023/02/05 01:08:11;;;;;;;;;;;;;;;-0.95;67.78;103500.75;4119466;28;20025;-65
2023/02/05 01:10:13;;;;;;;;;;;;;;;-1.01;67.74;103500.88;4105607;28;20025;-64
2023/02/05 01:12:15;;;;;;;;;;;;;;;-0.97;67.78;103510.50;4105828;28;20024;-66
2023/02/05 01:14:17;;;;;;;;;;;;;;;-0.94;68.07;103497.16;4104522;28;20029;-65
2023/02/05 01:16:19;;;;;;;;;;;;;;;-0.90;67.90;103493.53;4105793;28;20009;-64
2023/02/05 01:18:21;;;;;;;;;;;;;;;-0.86;68.02;103487.28;4118424;28;20034;-65
2023/02/05 01:20:23;;;;;;;;;;;;;;;-0.90;68.00;103485.59;4105586;28;20381;-65
2023/02/05 01:22:26;;;;;;;;;;;;;;;-0.88;68.23;103486.41;4120438;28;20013;-65
2023/02/05 01:24:28;;;;;;;;;;;;;;;-0.84;68.08;103479.28;4105669;28;20037;-65
2023/02/05 01:26:30;;;;;;;;;;;;;;;-0.84;68.14;103474.84;4090083;28;20029;-64
2023/02/05 01:28:32;;;;;;;;;;;;;;;-0.95;67.83;103471.56;4105799;28;20005;-66
2023/02/05 01:30:35;;;;;;;;;;;;;;;-1.02;68.19;103465.53;4120463;28;20029;-65
2023/02/05 01:32:37;;;;;;;;;;;;;;;-1.09;68.49;103454.16;4105867;28;20016;-64
2023/02/05 01:34:40;;;;;;;;;;;;;;;-1.11;68.45;103450.69;4118502;28;20487;-65
2023/02/05 01:36:41;;;;;;;;;;;;;;;-1.07;68.37;103464.75;4104536;28;20026;-64
2023/02/05 01:38:45;;;;;;;;;;;;;;;-1.01;68.53;103459.28;4104629;28;20365;-64
2023/02/05 01:40:47;;;;;;;;;;;;;;;-0.97;68.39;103462.75;4105093;28;20020;-64
2023/02/05 01:42:49;;;;;;;;;;;;;;;-0.91;68.14;103458.19;4120729;28;20025;-64
2023/02/05 01:45:10;;;;;;;;;;;;;;;-0.96;68.16;103465.34;4105343;28;20028;-64
2023/02/05 01:47:12;;;;;;;;;;;;;;;-1.03;68.30;103470.88;4105849;28;20025;-65
2023/02/05 01:49:15;;;;;;;;;;;;;;;-1.10;68.60;103463.03;4104966;28;20021;-65
2023/02/05 01:51:17;;;;;;;;;;;;;;;-1.15;68.89;103458.75;4105310;28;20467;-65
2023/02/05 01:53:21;;;;;;;;;;;;;;;-1.29;68.78;103465.19;4105634;28;20476;-64
2023/02/05 01:55:25;;;;;;;;;;;;;;;-1.37;68.91;103467.16;4106333;28;20017;-65
2023/02/05 01:57:27;;;;;;;;;;;;;;;-1.31;69.27;103458.22;4105495;28;20025;-65
2023/02/05 01:59:30;;;;;;;;;;;;;;;-1.26;69.26;103464.28;4105129;28;20573;-64
2023/02/05 02:01:32;;;;;;;;;;;;;;;-1.35;69.16;103457.41;4120269;28;20020;-64
2023/02/05 02:03:34;;;;;;;;;;;;;;;-1.39;69.13;103441.59;4108422;28;20026;-65
2023/02/05 02:05:36;;;;;;;;;;;;;;;-1.45;69.29;103447.88;4109019;28;20625;-65
2023/02/05 02:07:38;;;;;;;;;;;;;;;-1.46;69.43;103446.13;4107959;28;20018;-65
2023/02/05 02:09:40;;;;;;;;;;;;;;;-1.41;69.71;103444.28;4107528;28;20017;-65
2023/02/05 02:11:44;;;;;;;;;;;;;;;-1.36;69.46;103436.22;4107919;28;20022;-65
2023/02/05 02:13:45;;;;;;;;;;;;;;;-1.31;69.31;103440.50;4121829;28;20451;-65
2023/02/05 02:15:47;;;;;;;;;;;;;;;-1.28;68.90;103436.94;4107906;28;20026;-65
2023/02/05 02:17:50;;;;;;;;;;;;;;;-1.34;69.00;103437.91;4123050;28;20028;-65
2023/02/05 02:19:53;;;;;;;;;;;;;;;-1.40;69.10;103430.09;4091437;28;20343;-64
2023/02/05 02:22:14;;;;;;;;;;;;;;;-1.42;69.28;103426.63;4107600;28;20013;-65
2023/02/05 02:24:31;;;;;;;;;;;;;;;-1.43;69.00;103424.84;4108817;28;20024;-64
2023/02/05 02:26:41;;;;;;;;;;;;;;;-1.42;68.70;103420.44;4107722;28;20017;-65
2023/02/05 02:28:45;;;;;;;;;;;;;;;-1.47;68.64;103415.25;4092343;28;20033;-65
2023/02/05 02:30:48;;;;;;;;;;;;;;;-1.49;68.66;103422.34;4108265;28;20032;-65
2023/02/05 02:32:52;;;;;;;;;;;;;;;-1.50;68.76;103421.47;4106973;28;20523;-66
2023/02/05 02:34:55;;;;;;;;;;;;;;;-1.45;68.83;103416.06;4107846;28;21477;-65
2023/02/05 02:36:58;;;;;;;;;;;;;;;-1.44;68.66;103412.53;4108971;28;20033;-65
2023/02/05 02:39:02;;;;;;;;;;;;;;;-1.42;68.82;103410.72;4107396;28;20009;-65
2023/02/05 02:41:05;;;;;;;;;;;;;;;-1.36;68.65;103407.94;4122610;28;20009;-66
2023/02/05 02:43:08;;;;;;;;;;;;;;;-1.30;68.40;103399.84;4107357;28;20389;-65
2023/02/05 02:45:13;;;;;;;;;;;;;;;-1.32;68.20;103401.66;4106893;28;20377;-66
2023/02/05 02:47:16;;;;;;;;;;;;;;;-1.43;67.95;103395.69;4105160;28;20492;-65
2023/02/05 02:49:20;;;;;;;;;;;;;;;-1.49;67.94;103396.72;4108322;28;20364;-65
2023/02/05 02:51:22;;;;;;;;;;;;;;;-1.52;67.91;103395.91;4104584;28;20049;-65
2023/02/05 02:53:25;;;;;;;;;;;;;;;-1.56;67.91;103388.94;4108002;28;20033;-64
2023/02/05 02:55:27;;;;;;;;;;;;;;;-1.58;67.98;103396.91;4108040;28;20045;-65
2023/02/05 02:57:29;;;;;;;;;;;;;;;-1.59;68.05;103394.31;4123009;28;20020;-65
2023/02/05 02:59:31;;;;;;;;;;;;;;;-1.59;67.86;103395.16;4107467;28;20017;-66
2023/02/05 03:01:34;;;;;;;;;;;;;;;-1.57;67.78;103388.03;4122660;28;20017;-65
2023/02/05 03:03:39;;;;;;;;;;;;;;;-1.53;67.67;103399.47;4122633;28;20013;-66
2023/02/05 03:05:41;;;;;;;;;;;;;;;-1.52;67.55;103403.84;4108201;28;20030;-64
2023/02/05 03:07:44;;;;;;;;;;;;;;;-1.54;67.10;103395.06;4107660;28;20013;-65
2023/02/05 03:09:49;;;;;;;;;;;;;;;-1.59;67.18;103399.59;4120573;28;20025;-65
2023/02/05 03:11:52;;;;;;;;;;;;;;;-1.61;67.29;103398.75;4107063;28;20014;-65
2023/02/05 03:13:56;;;;;;;;;;;;;;;-1.65;67.38;103405.91;4106657;28;19990;-65
2023/02/05 03:16:01;;;;;;;;;;;;;;;-1.64;67.45;103397.06;4106028;28;20026;-66
2023/02/05 03:18:04;;;;;;;;;;;;;;;-1.71;67.37;103411.31;4106948;28;20016;-65
2023/02/05 03:20:07;;;;;;;;;;;;;;;-1.73;67.58;103408.69;4108239;28;20448;-65
2023/02/05 03:22:09;;;;;;;;;;;;;;;-1.77;67.45;103406.13;4106489;28;20021;-64
2023/02/05 03:24:11;;;;;;;;;;;;;;;-1.81;67.62;103398.25;4107766;28;20033;-65
2023/02/05 03:26:22;;;;;;;;;;;;;;;-1.77;67.66;103396.44;4107280;28;20020;-65
2023/02/05 03:28:25;;;;;;;;;;;;;;;-1.71;67.64;103390.13;4121279;28;20464;-65
2023/02/05 03:30:28;;;;;;;;;;;;;;;-1.67;67.39;103390.03;4107081;28;20037;-65
2023/02/05 03:32:33;;;;;;;;;;;;;;;-1.67;67.16;103397.97;4105591;28;20013;-65
2023/02/05 03:34:39;;;;;;;;;;;;;;;-1.66;67.29;103396.22;4121395;28;20113;-66
2023/02/05 03:36:47;;;;;;;;;;;;;;;-1.66;67.09;103405.03;4091213;28;20338;-65
2023/02/05 03:38:51;;;;;;;;;;;;;;;-1.66;66.89;103409.47;4104825;28;20013;-66
2023/02/05 03:40:54;;;;;;;;;;;;;;;-1.66;66.94;103402.38;4122005;28;20024;-66
2023/02/05 03:42:58;;;;;;;;;;;;;;;-1.70;66.93;103399.81;4106473;28;20020;-65
2023/02/05 03:45:04;;;;;;;;;;;;;;;-1.71;67.04;103403.38;4105877;28;20046;-66
2023/02/05 03:47:12;;;;;;;;;;;;;;;-1.72;66.95;103399.00;4106161;28;20457;-65
2023/02/05 03:49:15;;;;;;;;;;;;;;;-1.72;66.96;103399.84;4106503;28;20058;-65
2023/02/05 03:51:23;;;;;;;;;;;;;;;-1.81;66.95;103408.00;4105994;28;20032;-63
2023/02/05 03:53:28;;;;;;;;;;;;;;;-1.93;67.02;103401.16;4122222;28;20056;-64
2023/02/05 03:55:31;;;;;;;;;;;;;;;-2.01;67.48;103403.09;4105839;28;20013;-63
2023/02/05 03:57:35;;;;;;;;;;;;;;;-2.01;67.72;103409.28;4105557;28;20017;-65
2023/02/05 03:59:37;;;;;;;;;;;;;;;-2.00;67.92;103411.00;4106275;28;20013;-63
2023/02/05 04:01:40;;;;;;;;;;;;;;;-2.05;67.79;103399.63;4106413;28;20357;-64
2023/02/05 04:03:43;;;;;;;;;;;;;;;-2.15;68.18;103406.00;4105720;28;20024;-65
2023/02/05 04:05:46;;;;;;;;;;;;;;;-2.13;68.44;103411.25;4107062;28;20025;-64
2023/02/05 04:07:50;;;;;;;;;;;;;;;-2.13;68.67;103416.56;4121666;28;20032;-63
2023/02/05 04:09:54;;;;;;;;;;;;;;;-2.11;68.90;103412.13;4104396;28;20543;-65
2023/02/05 04:11:57;;;;;;;;;;;;;;;-2.12;69.15;103419.16;4089289;29;20029;-64
2023/02/05 04:14:00;;;;;;;;;;;;;;;-2.11;69.12;103425.38;4105509;28;20025;-64
2023/02/05 04:16:03;;;;;;;;;;;;;;;-2.06;69.20;103426.13;4121416;28;20030;-65
2023/02/05 04:18:07;;;;;;;;;;;;;;;-2.01;69.06;103432.22;4104258;28;20097;-65
2023/02/05 04:20:09;;;;;;;;;;;;;;;-2.04;68.85;103440.22;4106257;28;20030;-65
2023/02/05 04:22:11;;;;;;;;;;;;;;;-2.07;68.66;103441.16;4105694;28;20029;-65
2023/02/05 04:24:19;;;;;;;;;;;;;;;-2.03;68.97;103439.31;4105733;28;20361;-64
2023/02/05 04:26:21;;;;;;;;;;;;;;;-1.99;69.01;103441.03;4121730;28;20121;-64
2023/02/05 04:28:33;;;;;;;;;;;;;;;-1.97;68.86;103447.16;4106013;28;20471;-64
2023/02/05 04:30:39;;;;;;;;;;;;;;;-1.99;68.74;103443.69;4121733;28;20020;-65
2023/02/05 04:32:43;;;;;;;;;;;;;;;-1.95;68.71;103447.13;4106059;28;20021;-65
2023/02/05 04:34:46;;;;;;;;;;;;;;;-1.91;68.82;103441.75;4105172;28;20512;-64
2023/02/05 04:36:48;;;;;;;;;;;;;;;-1.87;68.74;103440.75;4105865;28;20029;-65
2023/02/05 04:38:50;;;;;;;;;;;;;;;-1.92;68.29;103429.41;4106494;28;20009;-65
2023/02/05 04:40:56;;;;;;;;;;;;;;;-2.00;68.18;103432.19;4104412;28;20028;-65
2023/02/05 04:42:58;;;;;;;;;;;;;;;-2.05;68.33;103420.81;4106141;28;20013;-64
2023/02/05 04:45:00;;;;;;;;;;;;;;;-2.10;68.29;103427.09;4106804;28;20033;-65
2023/02/05 04:47:02;;;;;;;;;;;;;;;-2.17;68.73;103416.59;4105427;28;20010;-65
2023/02/05 04:49:04;;;;;;;;;;;;;;;-2.17;69.09;103416.59;4105693;28;20345;-64
2023/02/05 04:51:07;;;;;;;;;;;;;;;-2.15;69.12;103410.41;4106180;28;20021;-65
2023/02/05 04:53:09;;;;;;;;;;;;;;;-2.19;69.42;103414.91;4105781;28;20026;-65
2023/02/05 04:55:10;;;;;;;;;;;;;;;-2.20;69.79;103424.59;4105733;28;20029;-66
2023/02/05 04:57:14;;;;;;;;;;;;;;;-2.16;69.90;103420.16;4106300;28;20032;-65
2023/02/05 04:59:16;;;;;;;;;;;;;;;-2.19;70.52;103415.78;4106032;28;20430;-65
2023/02/05 05:01:18;;;;;;;;;;;;;;;-2.19;70.82;103423.72;4106325;28;20005;-64
2023/02/05 05:03:20;;;;;;;;;;;;;;;-2.23;70.58;103411.44;4105438;28;20037;-65
2023/02/05 05:05:22;;;;;;;;;;;;;;;-2.24;70.61;103416.75;4106465;28;20021;-65
2023/02/05 05:07:24;;;;;;;;;;;;;;;-2.25;70.90;103409.72;4106155;28;20029;-65
2023/02/05 05:09:26;;;;;;;;;;;;;;;-2.26;70.84;103413.25;4105652;28;20006;-65
2023/02/05 05:11:28;;;;;;;;;;;;;;;-2.31;70.68;103412.47;4105106;28;20036;-65
2023/02/05 05:13:32;;;;;;;;;;;;;;;-2.36;70.86;103412.56;4105547;28;20022;-64
2023/02/05 05:15:34;;;;;;;;;;;;;;;-2.36;71.05;103413.44;4106255;28;20028;-65
2023/02/05 05:17:35;;;;;;;;;;;;;;;-2.30;71.09;103412.47;4105632;28;20024;-65
2023/02/05 05:19:37;;;;;;;;;;;;;;;-2.23;71.40;103411.44;4105605;28;20017;-66
2023/02/05 05:21:39;;;;;;;;;;;;;;;-2.12;71.29;103407.72;4120886;28;20495;-65
2023/02/05 05:23:41;;;;;;;;;;;;;;;-2.07;71.11;103411.16;4105919;28;20021;-65
2023/02/05 05:25:43;;;;;;;;;;;;;;;-2.05;70.67;103398.75;4106193;28;20412;-65
2023/02/05 05:27:45;;;;;;;;;;;;;;;-2.01;70.71;103396.03;4106062;28;20448;-64
2023/02/05 05:29:49;;;;;;;;;;;;;;;-2.00;70.77;103407.50;4105336;28;20021;-66
2023/02/05 05:31:51;;;;;;;;;;;;;;;-2.05;70.48;103407.56;4105143;28;20029;-65
2023/02/05 05:33:53;;;;;;;;;;;;;;;-2.10;70.33;103417.38;4104594;28;20021;-63
2023/02/05 05:35:55;;;;;;;;;;;;;;;-2.10;70.42;103419.16;4105052;28;20029;-63
2023/02/05 05:37:57;;;;;;;;;;;;;;;-2.03;70.82;103416.34;4104892;28;20032;-65
2023/02/05 05:44:38;;;;;;;;;;;;;;;-1.99;70.31;103427.78;4105480;28;20017;-64
2023/02/05 05:46:42;;;;;;;;;;;;;;;-2.05;70.41;103433.19;4106544;28;20016;-64
2023/02/05 05:48:43;;;;;;;;;;;;;;;-2.07;70.58;103437.63;4104628;28;20046;-65
2023/02/05 05:50:45;;;;;;;;;;;;;;;-2.02;70.78;103441.94;4105838;28;20025;-64
2023/02/05 05:52:47;;;;;;;;;;;;;;;-2.01;70.43;103434.88;4105460;28;20013;-65
2023/02/05 05:54:49;;;;;;;;;;;;;;;-2.07;70.22;103442.91;4104954;28;20380;-66
2023/02/05 05:56:51;;;;;;;;;;;;;;;-2.14;70.37;103433.38;4105163;28;20045;-65
2023/02/05 05:58:53;;;;;;;;;;;;;;;-2.13;70.86;103429.78;4105089;28;20013;-65
2023/02/05 06:00:55;;;;;;;;;;;;;;;-2.12;71.05;103440.34;4105968;28;20030;-64
2023/02/05 06:02:58;;;;;;;;;;;;;;;-2.09;70.88;103442.09;4105167;28;20026;-64
2023/02/05 06:05:01;;;;;;;;;;;;;;;-2.10;70.84;103442.97;4105904;28;20369;-65
2023/02/05 06:07:03;;;;;;;;;;;;;;;-2.15;70.85;103431.59;4105576;28;20373;-63
2023/02/05 06:09:05;;;;;;;;;;;;;;;-2.19;70.79;103430.81;4104966;28;20029;-65
2023/02/05 06:11:07;;;;;;;;;;;;;;;-2.20;70.89;103418.44;4105098;28;20033;-65
2023/02/05 06:13:09;;;;;;;;;;;;;;;-2.15;71.21;103427.16;4104716;28;20480;-64
2023/02/05 06:15:11;;;;;;;;;;;;;;;-2.06;71.25;103426.13;4105436;28;20034;-65
2023/02/05 06:17:13;;;;;;;;;;;;;;;-2.08;70.74;103423.53;4105411;28;20021;-64
2023/02/05 06:19:16;;;;;;;;;;;;;;;-2.07;70.68;103419.09;4105472;28;20352;-65
2023/02/05 06:21:18;;;;;;;;;;;;;;;-2.11;70.49;103418.28;4105337;28;20022;-65
2023/02/05 06:23:20;;;;;;;;;;;;;;;-2.14;70.55;103420.13;4105464;28;20397;-64
2023/02/05 06:25:22;;;;;;;;;;;;;;;-2.17;70.80;103418.41;4105396;28;20037;-65
2023/02/05 06:27:24;;;;;;;;;;;;;;;-2.18;70.88;103414.88;4105237;28;20005;-64
2023/02/05 06:29:26;;;;;;;;;;;;;;;-2.23;70.85;103410.56;4104494;28;20033;-64
2023/02/05 06:31:28;;;;;;;;;;;;;;;-2.29;71.25;103416.84;4104948;28;20021;-65
2023/02/05 06:33:30;;;;;;;;;;;;;;;-2.25;71.24;103420.31;4104286;28;20012;-65
2023/02/05 06:35:33;;;;;;;;;;;;;;;-2.25;71.37;103420.31;4104649;28;20491;-65
2023/02/05 06:37:35;;;;;;;;;;;;;;;-2.20;71.34;103421.09;4105243;28;20397;-65
2023/02/05 06:39:37;;;;;;;;;;;;;;;-2.19;71.43;103413.13;4105289;28;20432;-63
2023/02/05 06:41:39;;;;;;;;;;;;;;;-2.21;71.14;103411.41;4105083;28;20026;-65
2023/02/05 06:43:41;;;;;;;;;;;;;;;-2.26;71.09;103406.19;4104996;28;20029;-65
2023/02/05 06:45:43;;;;;;;;;;;;;;;-2.24;71.30;103414.09;4104066;28;20017;-65
2023/02/05 06:47:45;;;;;;;;;;;;;;;-2.21;71.49;103414.94;4104834;28;20021;-66
2023/02/05 06:49:47;;;;;;;;;;;;;;;-2.14;71.34;103422.78;4108056;28;20021;-63
2023/02/05 06:51:50;;;;;;;;;;;;;;;-2.09;71.12;103421.75;4108163;28;20603;-63
2023/02/05 06:53:54;;;;;;;;;;;;;;;-2.04;71.02;103417.28;4107640;28;20061;-65
2023/02/05 06:55:57;;;;;;;;;;;;;;;-2.00;70.83;103420.72;4107897;28;20024;-65
2023/02/05 06:57:59;;;;;;;;;;;;;;;-2.06;70.43;103427.00;4108144;28;20020;-65
2023/02/05 07:00:01;;;;;;;;;;;;;;;-2.08;70.53;103422.66;4107949;28;19930;-66
2023/02/05 07:02:03;;;;;;;;;;;;;;;-2.15;70.62;103428.97;4107183;28;20009;-65
2023/02/05 07:04:05;;;;;;;;;;;;;;;-2.19;71.43;103426.38;4107944;28;20065;-64
2023/02/05 07:06:07;;;;;;;;;;;;;;;-2.20;71.55;103416.66;4108114;28;20013;-65
2023/02/05 07:08:10;;;;;;;;;;;;;;;-2.14;71.89;103426.28;4106239;28;20024;-65
2023/02/05 07:10:12;;;;;;;;;;;;;;;-2.09;71.74;103428.84;4107046;28;20095;-65
2023/02/05 07:12:14;;;;;;;;;;;;;;;-2.04;71.77;103445.50;4106359;28;20452;-64
2023/02/05 07:14:16;;;;;;;;;;;;;;;-2.03;71.50;103441.97;4105849;28;20021;-64
2023/02/05 07:16:18;;;;;;;;;;;;;;;-2.02;71.59;103435.78;4104860;28;20032;-65
2023/02/05 07:18:20;;;;;;;;;;;;;;;-1.99;71.43;103435.72;4106475;28;20028;-65
2023/02/05 07:20:23;;;;;;;;;;;;;;;-1.95;71.49;103437.41;4105641;28;19961;-63
2023/02/05 07:22:25;;;;;;;;;;;;;;;-1.94;71.64;103436.50;4106541;28;20017;-65
2023/02/05 07:24:28;;;;;;;;;;;;;;;-1.92;71.15;103437.34;4104722;28;20543;-65
2023/02/05 07:26:30;;;;;;;;;;;;;;;-1.94;71.20;103433.84;4104461;28;20016;-64
2023/02/05 07:28:32;;;;;;;;;;;;;;;-1.88;71.25;103427.53;4105832;28;20029;-64
2023/02/05 07:30:34;;;;;;;;;;;;;;;-1.91;70.90;103427.59;4104775;28;20045;-65
2023/02/05 07:32:36;;;;;;;;;;;;;;;-1.95;71.23;103418.00;4106413;28;20041;-67
2023/02/05 07:34:38;;;;;;;;;;;;;;;-2.02;71.46;103415.47;4106104;28;20583;-64
2023/02/05 07:36:40;;;;;;;;;;;;;;;-2.06;71.74;103420.84;4106612;28;20020;-65
2023/02/05 07:38:42;;;;;;;;;;;;;;;-2.10;71.96;103420.03;4106596;28;20460;-63
2023/02/05 07:40:45;;;;;;;;;;;;;;;-2.15;72.28;103415.72;4106617;28;20779;-62
2023/02/05 07:42:47;;;;;;;;;;;;;;;-2.17;72.47;103426.34;4106947;28;20013;-64
2023/02/05 07:44:49;;;;;;;;;;;;;;;-2.17;72.63;103426.34;4105268;28;20029;-64
2023/02/05 07:46:51;;;;;;;;;;;;;;;-2.17;72.60;103429.84;4106156;28;20349;-63
2023/02/05 07:48:54;;;;;;;;;;;;;;;-2.16;72.57;103430.75;4106362;28;20031;-65
2023/02/05 07:50:56;;;;;;;;;;;;;;;-2.18;72.51;103425.47;4106760;28;20014;-64
2023/02/05 07:52:58;;;;;;;;;;;;;;;-2.18;72.55;103427.22;4105244;28;20393;-64
2023/02/05 07:55:00;;;;;;;;;;;;;;;-2.20;72.48;103421.09;4106662;28;20033;-63
2023/02/05 07:57:03;;;;;;;;;;;;;;;-2.20;72.69;103406.06;4106845;28;20017;-62
2023/02/05 07:59:05;;;;;;;;;;;;;;;-2.17;72.79;103403.38;4106308;28;20009;-63
2023/02/05 08:01:08;;;;;;;;;;;;;;;-2.16;72.70;103393.69;4105662;28;20042;-63
2023/02/05 08:03:10;;;;;;;;;;;;;;;-2.13;72.77;103398.00;4104862;28;20013;-65
2023/02/05 08:05:12;;;;;;;;;;;;;;;-2.12;72.71;103399.78;4105829;28;20029;-62
2023/02/05 08:07:14;;;;;;;;;;;;;;;-2.12;72.65;103403.28;4105958;28;20456;-63
2023/02/05 08:09:16;;;;;;;;;;;;;;;-2.11;72.40;103394.44;4103767;28;20022;-64
2023/02/05 08:11:18;;;;;;;;;;;;;;;-2.10;72.49;103393.56;4103186;28;20020;-61
2023/02/05 08:13:21;;;;;;;;;;;;;;;-2.10;72.38;103382.97;4104065;28;20017;-64
2023/02/05 08:15:23;;;;;;;;;;;;;;;-2.09;72.19;103391.78;4102639;28;20060;-63
2023/02/05 08:17:25;;;;;;;;;;;;;;;-2.09;71.77;103397.06;4103329;28;20013;-62
2023/02/05 08:19:27;;;;;;;;;;;;;;;-2.07;71.74;103397.91;4103606;28;20032;-64
2023/02/05 08:21:29;;;;;;;;;;;;;;;-2.05;71.68;103401.41;4102880;28;20066;-62
2023/02/05 08:23:31;;;;;;;;;;;;;;;-2.03;71.82;103396.94;4105206;28;20026;-60
2023/02/05 08:25:33;;;;;;;;;;;;;;;-2.00;71.77;103400.41;4104431;28;20018;-64
2023/02/05 08:27:35;;;;;;;;;;;;;;;-1.97;71.63;103395.97;4103358;28;20013;-64
2023/02/05 08:29:38;;;;;;;;;;;;;;;-1.97;71.52;103395.97;4103626;28;20389;-64
2023/02/05 08:31:40;;;;;;;;;;;;;;;-1.90;71.90;103395.78;4102584;28;20029;-64
2023/02/05 08:33:43;;;;;;;;;;;;;;;-1.84;72.07;103390.38;4103167;28;20402;-65
2023/02/05 08:35:45;;;;;;;;;;;;;;;-1.79;72.06;103395.56;4103019;28;20027;-65
2023/02/05 08:37:47;;;;;;;;;;;;;;;-1.75;71.64;103391.09;4103200;28;20025;-64
2023/02/05 08:39:49;;;;;;;;;;;;;;;-1.72;71.11;103383.97;4104328;28;20355;-64
2023/02/05 08:41:51;;;;;;;;;;;;;;;-1.73;70.30;103384.00;4104905;28;20060;-64
2023/02/05 08:43:53;;;;;;;;;;;;;;;-1.71;70.68;103379.53;4102833;28;19933;-64
2023/02/05 08:45:56;;;;;;;;;;;;;;;-1.71;70.86;103377.75;4104360;28;20394;-63
2023/02/05 08:47:58;;;;;;;;;;;;;;;-1.72;70.48;103381.31;4103549;28;20496;-64
2023/02/05 08:50:00;;;;;;;;;;;;;;;-1.71;70.40;103379.53;4104728;28;20046;-64
2023/02/05 08:52:02;;;;;;;;;;;;;;;-1.69;70.54;103377.72;4105265;28;20025;-64
2023/02/05 08:54:08;;;;;;;;;;;;;;;-1.66;70.55;103370.56;4102869;28;20025;-64
2023/02/05 08:56:11;;;;;;;;;;;;;;;-1.62;70.87;103379.31;4105133;28;20024;-64
2023/02/05 08:58:13;;;;;;;;;;;;;;;-1.58;70.94;103381.03;4104594;28;20017;-64
2023/02/05 09:00:15;;;;;;;;;;;;;;;-1.55;70.55;103380.94;4103046;28;20044;-64
2023/02/05 09:02:19;;;;;;;;;;;;;;;-1.52;70.09;103374.69;4104655;28;20009;-62
2023/02/05 09:04:22;;;;;;;;;;;;;;;-1.52;69.69;103387.94;4104655;28;20026;-63
2023/02/05 09:06:24;;;;;;;;;;;;;;;-1.53;69.61;103389.72;4106187;28;20046;-64
2023/02/05 09:08:26;;;;;;;;;;;;;;;-1.51;69.94;103379.09;4104878;28;20017;-64
2023/02/05 09:10:28;;;;;;;;;;;;;;;-1.49;70.21;103377.28;4105429;28;20021;-64
2023/02/05 09:12:30;;;;;;;;;;;;;;;-1.48;69.97;103371.94;4106188;28;20061;-64
2023/02/05 09:14:35;;;;;;;;;;;;;;;-1.48;70.11;103374.59;4106012;28;20432;-64
2023/02/05 09:16:37;;;;;;;;;;;;;;;-1.44;70.05;103372.78;4106079;28;20025;-64
2023/02/05 09:18:40;;;;;;;;;;;;;;;-1.45;69.84;103369.22;4105003;28;20060;-64
2023/02/05 09:20:42;;;;;;;;;;;;;;;-1.42;69.92;103367.44;4105304;28;20025;-61
2023/02/05 09:22:44;;;;;;;;;;;;;;;-1.40;70.09;103376.22;4105440;28;20055;-64
2023/02/05 09:24:46;;;;;;;;;;;;;;;-1.38;69.55;103377.03;4105306;28;20044;-63
2023/02/05 09:26:48;;;;;;;;;;;;;;;-1.35;69.50;103377.88;4106048;28;20026;-64
2023/02/05 09:28:50;;;;;;;;;;;;;;;-1.32;69.44;103377.81;4104056;28;20009;-63
2023/02/05 09:30:52;;;;;;;;;;;;;;;-1.31;69.34;103381.31;4105463;28;20016;-62
2023/02/05 09:32:54;;;;;;;;;;;;;;;-1.27;69.52;103372.34;4105409;28;20022;-64
2023/02/05 09:34:57;;;;;;;;;;;;;;;-1.27;69.07;103375.00;4105314;28;20021;-63
2023/02/05 09:36:59;;;;;;;;;;;;;;;-1.23;69.38;103379.34;4105802;28;20017;-64
2023/02/05 09:39:01;;;;;;;;;;;;;;;-1.23;69.25;103379.34;4105373;28;20025;-64
2023/02/05 09:41:05;;;;;;;;;;;;;;;-1.20;69.35;103375.75;4105342;28;20457;-64
2023/02/05 09:43:12;;;;;;;;;;;;;;;-1.17;69.34;103384.50;4105683;28;20013;-64
2023/02/05 09:45:16;;;;;;;;;;;;;;;-1.17;68.93;103384.50;4105143;28;20038;-64
2023/02/05 09:47:20;;;;;;;;;;;;;;;-1.14;69.05;103386.22;4105135;28;20107;-64
2023/02/05 09:49:23;;;;;;;;;;;;;;;-1.14;68.68;103386.22;4104172;28;20045;-64
2023/02/05 09:51:30;;;;;;;;;;;;;;;-1.17;68.22;103376.56;4105542;28;20021;-64
2023/02/05 09:53:33;;;;;;;;;;;;;;;-1.17;68.35;103383.66;4105091;28;20021;-64
2023/02/05 09:55:36;;;;;;;;;;;;;;;-1.18;68.46;103376.59;4105903;28;20037;-64
2023/02/05 09:57:38;;;;;;;;;;;;;;;-1.17;68.41;103370.38;4105297;28;20025;-64
2023/02/05 09:59:41;;;;;;;;;;;;;;;-1.16;68.00;103377.41;4105386;28;20021;-65
2023/02/05 10:01:44;;;;;;;;;;;;;;;-1.17;67.84;103365.94;4105162;28;20025;-63
2023/02/05 10:03:46;;;;;;;;;;;;;;;-1.15;67.72;103364.13;4105523;28;20037;-64
2023/02/05 10:05:53;;;;;;;;;;;;;;;-1.18;67.79;103364.19;4105337;28;20100;-65
2023/02/05 10:07:58;;;;;;;;;;;;;;;-1.11;67.76;103370.25;4105178;28;20017;-65
2023/02/05 10:10:27;;;;;;;;;;;;;;;-1.09;68.00;103374.59;4105145;28;20026;-65
2023/02/05 10:12:36;;;;;;;;;;;;;;;-1.05;68.34;103378.06;4105101;28;20025;-64
2023/02/05 10:14:43;;;;;;;;;;;;;;;-1.00;68.40;103375.31;4104861;28;20009;-65
2023/02/05 10:16:52;;;;;;;;;;;;;;;-0.94;68.23;103372.47;4105346;28;20021;-64
2023/02/05 10:18:58;;;;;;;;;;;;;;;-0.91;68.03;103360.03;4104674;28;20006;-64
2023/02/05 10:21:01;;;;;;;;;;;;;;;-0.87;67.87;103363.47;4105089;28;20017;-64
2023/02/05 10:23:08;;;;;;;;;;;;;;;-0.83;67.65;103362.47;4105449;28;20357;-64
2023/02/05 10:25:28;;;;;;;;;;;;;;;-0.77;67.66;103362.34;4108138;28;20049;-64
2023/02/05 10:27:33;;;;;;;;;;;;;;;-0.70;67.46;103362.19;4098163;28;20020;-64
2023/02/05 10:29:36;;;;;;;;;;;;;;;-0.64;67.68;103368.19;4108120;28;20013;-62
2023/02/05 10:31:40;;;;;;;;;;;;;;;-0.60;67.38;103353.91;4108288;28;20013;-64
2023/02/05 10:33:44;;;;;;;;;;;;;;;-0.54;67.28;103347.56;4108129;28;20368;-65
2023/02/05 10:35:48;;;;;;;;;;;;;;;-0.49;67.50;103343.00;4107425;28;20054;-62
2023/02/05 10:37:51;;;;;;;;;;;;;;;-0.43;67.35;103336.69;4108830;28;20365;-64
2023/02/05 10:39:54;;;;;;;;;;;;;;;-0.38;67.08;103343.63;4107585;28;20021;-64